sensor_id;sensor_type;location;lat;lon;timestamp;P1;durP1;ratioP1;P2;durP2;ratioP2
40304;SDS011;26010;52.418;20.728;2022-07-09T00:03:08;25.03;;;22.80;;
40304;SDS011;26010;52.418;20.728;2022-07-09T00:13:09;19.73;;;18.30;;
40304;SDS011;26010;52.418;20.728;2022-07-09T00:23:10;17.43;;;16.03;;
40304;SDS011;26010;52.418;20.728;2022-07-09T00:33:11;17.43;;;15.97;;
40304;SDS011;26010;52.418;20.728;2022-07-09T00:43:18;19.37;;;18.13;;
40304;SDS011;26010;52.418;20.728;2022-07-09T00:53:21;18.43;;;16.80;;
40304;SDS011;26010;52.418;20.728;2022-07-09T01:03:22;24.27;;;22.57;;
40304;SDS011;26010;52.418;20.728;2022-07-09T01:13:24;25.77;;;24.03;;
40304;SDS011;26010;52.418;20.728;2022-07-09T01:23:24;25.90;;;24.37;;
40304;SDS011;26010;52.418;20.728;2022-07-09T01:33:26;30.73;;;28.80;;
40304;SDS011;26010;52.418;20.728;2022-07-09T01:43:29;24.95;;;23.30;;
40304;SDS011;26010;52.418;20.728;2022-07-09T01:53:31;18.23;;;16.53;;
40304;SDS011;26010;52.418;20.728;2022-07-09T02:03:34;32.23;;;29.73;;
40304;SDS011;26010;52.418;20.728;2022-07-09T02:13:34;18.53;;;17.03;;
40304;SDS011;26010;52.418;20.728;2022-07-09T02:23:35;16.87;;;15.40;;
40304;SDS011;26010;52.418;20.728;2022-07-09T02:33:36;17.27;;;15.13;;
40304;SDS011;26010;52.418;20.728;2022-07-09T02:43:37;16.20;;;14.90;;
40304;SDS011;26010;52.418;20.728;2022-07-09T02:53:38;18.77;;;17.17;;
40304;SDS011;26010;52.418;20.728;2022-07-09T03:03:39;17.10;;;15.50;;
40304;SDS011;26010;52.418;20.728;2022-07-09T03:13:40;17.17;;;15.60;;
40304;SDS011;26010;52.418;20.728;2022-07-09T03:23:41;85.80;;;80.80;;
40304;SDS011;26010;52.418;20.728;2022-07-09T03:33:41;17.20;;;15.80;;
40304;SDS011;26010;52.418;20.728;2022-07-09T03:43:42;17.33;;;16.03;;
40304;SDS011;26010;52.418;20.728;2022-07-09T03:53:43;15.40;;;13.87;;
40304;SDS011;26010;52.418;20.728;2022-07-09T04:03:44;16.07;;;14.70;;
40304;SDS011;26010;52.418;20.728;2022-07-09T04:13:45;16.37;;;15.23;;
40304;SDS011;26010;52.418;20.728;2022-07-09T04:23:46;17.20;;;16.10;;
40304;SDS011;26010;52.418;20.728;2022-07-09T04:33:47;21.43;;;19.90;;
40304;SDS011;26010;52.418;20.728;2022-07-09T04:43:48;19.03;;;17.50;;
40304;SDS011;26010;52.418;20.728;2022-07-09T04:53:49;18.53;;;17.00;;
40304;SDS011;26010;52.418;20.728;2022-07-09T05:03:50;18.97;;;17.63;;
40304;SDS011;26010;52.418;20.728;2022-07-09T05:13:51;18.07;;;16.90;;
40304;SDS011;26010;52.418;20.728;2022-07-09T05:23:51;21.37;;;19.90;;
40304;SDS011;26010;52.418;20.728;2022-07-09T05:33:52;21.77;;;20.20;;
40304;SDS011;26010;52.418;20.728;2022-07-09T05:43:53;28.20;;;26.37;;
40304;SDS011;26010;52.418;20.728;2022-07-09T05:53:54;24.73;;;23.03;;
40304;SDS011;26010;52.418;20.728;2022-07-09T06:03:55;34.67;;;32.33;;
40304;SDS011;26010;52.418;20.728;2022-07-09T06:13:55;28.80;;;26.90;;
40304;SDS011;26010;52.418;20.728;2022-07-09T06:23:56;24.97;;;23.07;;
40304;SDS011;26010;52.418;20.728;2022-07-09T06:33:57;32.77;;;30.63;;
40304;SDS011;26010;52.418;20.728;2022-07-09T06:43:58;37.30;;;34.80;;
40304;SDS011;26010;52.418;20.728;2022-07-09T06:53:59;21.97;;;20.27;;
40304;SDS011;26010;52.418;20.728;2022-07-09T07:04:00;21.20;;;19.30;;
40304;SDS011;26010;52.418;20.728;2022-07-09T07:14:01;18.77;;;17.37;;
40304;SDS011;26010;52.418;20.728;2022-07-09T07:24:02;18.90;;;17.73;;
40304;SDS011;26010;52.418;20.728;2022-07-09T07:34:03;23.27;;;21.83;;
40304;SDS011;26010;52.418;20.728;2022-07-09T07:44:03;30.93;;;29.07;;
40304;SDS011;26010;52.418;20.728;2022-07-09T07:54:04;43.30;;;41.03;;
40304;SDS011;26010;52.418;20.728;2022-07-09T08:04:05;26.43;;;24.67;;
40304;SDS011;26010;52.418;20.728;2022-07-09T08:14:06;18.03;;;16.80;;
40304;SDS011;26010;52.418;20.728;2022-07-09T08:24:07;27.57;;;25.87;;
40304;SDS011;26010;52.418;20.728;2022-07-09T08:34:08;16.27;;;15.07;;
40304;SDS011;26010;52.418;20.728;2022-07-09T08:44:12;10.07;;;8.80;;
40304;SDS011;26010;52.418;20.728;2022-07-09T08:54:12;8.60;;;6.67;;
40304;SDS011;26010;52.418;20.728;2022-07-09T09:04:14;11.67;;;10.87;;
40304;SDS011;26010;52.418;20.728;2022-07-09T09:14:21;11.57;;;10.37;;
40304;SDS011;26010;52.418;20.728;2022-07-09T09:24:23;9.10;;;8.40;;
40304;SDS011;26010;52.418;20.728;2022-07-09T09:34:24;17.75;;;16.63;;
40304;SDS011;26010;52.418;20.728;2022-07-09T09:54:33;5.47;;;4.90;;
40304;SDS011;26010;52.418;20.728;2022-07-09T10:04:35;7.63;;;6.90;;
40304;SDS011;26010;52.418;20.728;2022-07-09T10:14:37;5.78;;;5.38;;
40304;SDS011;26010;52.418;20.728;2022-07-09T10:24:37;6.22;;;4.35;;
40304;SDS011;26010;52.418;20.728;2022-07-09T10:44:40;5.53;;;4.60;;
40304;SDS011;26010;52.418;20.728;2022-07-09T10:54:47;8.07;;;5.13;;
40304;SDS011;26010;52.418;20.728;2022-07-09T11:04:49;7.23;;;4.80;;
40304;SDS011;26010;52.418;20.728;2022-07-09T11:14:51;7.40;;;5.00;;
40304;SDS011;26010;52.418;20.728;2022-07-09T11:24:52;6.60;;;4.43;;
40304;SDS011;26010;52.418;20.728;2022-07-09T11:34:53;8.87;;;4.30;;
40304;SDS011;26010;52.418;20.728;2022-07-09T11:44:57;6.43;;;4.70;;
40304;SDS011;26010;52.418;20.728;2022-07-09T11:55:08;5.60;;;4.83;;
40304;SDS011;26010;52.418;20.728;2022-07-09T12:05:10;11.30;;;10.50;;
40304;SDS011;26010;52.418;20.728;2022-07-09T12:15:10;8.70;;;8.10;;
40304;SDS011;26010;52.418;20.728;2022-07-09T12:25:11;10.60;;;9.80;;
40304;SDS011;26010;52.418;20.728;2022-07-09T12:35:12;11.50;;;10.60;;
40304;SDS011;26010;52.418;20.728;2022-07-09T12:45:13;10.37;;;9.67;;
40304;SDS011;26010;52.418;20.728;2022-07-09T12:55:14;11.50;;;9.77;;
40304;SDS011;26010;52.418;20.728;2022-07-09T13:05:14;8.47;;;7.03;;
40304;SDS011;26010;52.418;20.728;2022-07-09T13:15:17;8.23;;;5.87;;
40304;SDS011;26010;52.418;20.728;2022-07-09T13:25:21;7.00;;;6.03;;
40304;SDS011;26010;52.418;20.728;2022-07-09T13:35:22;8.17;;;7.37;;
40304;SDS011;26010;52.418;20.728;2022-07-09T13:45:25;10.37;;;6.93;;
40304;SDS011;26010;52.418;20.728;2022-07-09T13:55:28;8.63;;;6.40;;
40304;SDS011;26010;52.418;20.728;2022-07-09T14:05:29;8.53;;;7.80;;
40304;SDS011;26010;52.418;20.728;2022-07-09T14:15:29;7.67;;;6.97;;
40304;SDS011;26010;52.418;20.728;2022-07-09T14:35:32;10.23;;;5.83;;
40304;SDS011;26010;52.418;20.728;2022-07-09T14:45:33;9.23;;;5.50;;
40304;SDS011;26010;52.418;20.728;2022-07-09T14:55:34;8.23;;;6.30;;
40304;SDS011;26010;52.418;20.728;2022-07-09T15:05:35;6.63;;;5.72;;
40304;SDS011;26010;52.418;20.728;2022-07-09T15:15:37;8.43;;;6.30;;
40304;SDS011;26010;52.418;20.728;2022-07-09T15:25:37;7.93;;;7.13;;
40304;SDS011;26010;52.418;20.728;2022-07-09T15:35:38;9.10;;;8.27;;
40304;SDS011;26010;52.418;20.728;2022-07-09T15:45:41;7.37;;;5.80;;
40304;SDS011;26010;52.418;20.728;2022-07-09T15:55:42;7.37;;;5.30;;
40304;SDS011;26010;52.418;20.728;2022-07-09T16:05:43;12.30;;;5.13;;
40304;SDS011;26010;52.418;20.728;2022-07-09T16:15:44;7.07;;;6.37;;
40304;SDS011;26010;52.418;20.728;2022-07-09T16:25:44;6.77;;;5.20;;
40304;SDS011;26010;52.418;20.728;2022-07-09T16:45:47;7.87;;;7.13;;
40304;SDS011;26010;52.418;20.728;2022-07-09T16:55:48;31.43;;;29.43;;
40304;SDS011;26010;52.418;20.728;2022-07-09T17:05:49;20.47;;;19.07;;
40304;SDS011;26010;52.418;20.728;2022-07-09T17:15:49;34.87;;;32.33;;
40304;SDS011;26010;52.418;20.728;2022-07-09T17:25:50;48.50;;;45.73;;
40304;SDS011;26010;52.418;20.728;2022-07-09T17:35:51;51.27;;;48.10;;
40304;SDS011;26010;52.418;20.728;2022-07-09T17:45:52;54.40;;;51.40;;
40304;SDS011;26010;52.418;20.728;2022-07-09T17:55:53;55.50;;;51.63;;
40304;SDS011;26010;52.418;20.728;2022-07-09T18:05:54;52.00;;;49.07;;
40304;SDS011;26010;52.418;20.728;2022-07-09T18:15:55;49.10;;;46.37;;
40304;SDS011;26010;52.418;20.728;2022-07-09T18:25:55;46.47;;;43.83;;
40304;SDS011;26010;52.418;20.728;2022-07-09T18:35:56;41.70;;;39.40;;
40304;SDS011;26010;52.418;20.728;2022-07-09T18:45:57;41.87;;;39.27;;
40304;SDS011;26010;52.418;20.728;2022-07-09T18:55:58;34.40;;;32.40;;
40304;SDS011;26010;52.418;20.728;2022-07-09T19:05:58;23.77;;;22.07;;
40304;SDS011;26010;52.418;20.728;2022-07-09T19:15:59;19.43;;;18.27;;
40304;SDS011;26010;52.418;20.728;2022-07-09T19:26:00;25.73;;;23.73;;
40304;SDS011;26010;52.418;20.728;2022-07-09T19:36:01;24.90;;;23.00;;
40304;SDS011;26010;52.418;20.728;2022-07-09T19:46:02;25.50;;;23.90;;
40304;SDS011;26010;52.418;20.728;2022-07-09T19:56:03;23.00;;;21.30;;
40304;SDS011;26010;52.418;20.728;2022-07-09T20:06:04;37.53;;;34.57;;
40304;SDS011;26010;52.418;20.728;2022-07-09T20:16:04;43.20;;;39.33;;
40304;SDS011;26010;52.418;20.728;2022-07-09T20:26:06;47.37;;;42.00;;
40304;SDS011;26010;52.418;20.728;2022-07-09T20:36:06;38.67;;;35.23;;
40304;SDS011;26010;52.418;20.728;2022-07-09T20:46:07;36.27;;;33.07;;
40304;SDS011;26010;52.418;20.728;2022-07-09T20:56:08;29.50;;;27.17;;
40304;SDS011;26010;52.418;20.728;2022-07-09T21:06:09;27.77;;;25.63;;
40304;SDS011;26010;52.418;20.728;2022-07-09T21:16:09;26.57;;;24.30;;
40304;SDS011;26010;52.418;20.728;2022-07-09T21:26:10;24.97;;;23.00;;
40304;SDS011;26010;52.418;20.728;2022-07-09T21:36:11;21.67;;;19.53;;
40304;SDS011;26010;52.418;20.728;2022-07-09T21:46:12;17.50;;;16.23;;
40304;SDS011;26010;52.418;20.728;2022-07-09T21:56:13;14.50;;;13.47;;
40304;SDS011;26010;52.418;20.728;2022-07-09T22:06:13;15.50;;;14.03;;
40304;SDS011;26010;52.418;20.728;2022-07-09T22:16:15;16.83;;;15.63;;
40304;SDS011;26010;52.418;20.728;2022-07-09T22:26:15;12.23;;;11.23;;
40304;SDS011;26010;52.418;20.728;2022-07-09T22:36:16;11.40;;;10.30;;
40304;SDS011;26010;52.418;20.728;2022-07-09T22:46:17;11.93;;;11.07;;
40304;SDS011;26010;52.418;20.728;2022-07-09T22:56:18;11.80;;;10.80;;
40304;SDS011;26010;52.418;20.728;2022-07-09T23:06:18;11.57;;;10.40;;
40304;SDS011;26010;52.418;20.728;2022-07-09T23:16:20;11.40;;;10.60;;
40304;SDS011;26010;52.418;20.728;2022-07-09T23:26:21;12.20;;;11.10;;
40304;SDS011;26010;52.418;20.728;2022-07-09T23:36:22;12.93;;;11.83;;
40304;SDS011;26010;52.418;20.728;2022-07-09T23:46:22;13.57;;;12.57;;
40304;SDS011;26010;52.418;20.728;2022-07-09T23:56:23;12.03;;;11.03;;
